Time;durP1;ratioP1;P1;durP2;ratioP2;P2;SDS_P1;SDS_P2;PMS_P1;PMS_P2;Temp;Humidity;BMP_temperature;BMP_pressure;BME280_temperature;BME280_humidity;BME280_pressure;Samples;Min_cycle;Max_cycle;Signal;HPM_P1;HPM_P2
2021/07/07 00:00:46;;;;;;;6.10;1.80;;;17.30;99.90;;;;;;5026441;28;20621;-76
2021/07/07 00:03:32;;;;;;;8.30;1.77;;;17.40;99.90;;;;;;5026343;28;21039;-76
2021/07/07 00:06:19;;;;;;;2.70;1.60;;;17.40;99.90;;;;;;5029415;28;20425;-76
2021/07/07 00:09:05;;;;;;;4.83;1.90;;;17.30;99.90;;;;;;5022807;28;20548;-76
2021/07/07 00:11:51;;;;;;;14.03;1.97;;;17.40;99.90;;;;;;5023242;28;20892;-76
2021/07/07 00:14:37;;;;;;;10.90;1.97;;;17.40;99.90;;;;;;5018099;28;20922;-75
2021/07/07 00:17:23;;;;;;;5.13;2.00;;;17.30;99.90;;;;;;5020828;28;21206;-76
2021/07/07 00:20:10;;;;;;;4.87;1.70;;;17.30;99.90;;;;;;5016500;28;20453;-76
2021/07/07 00:22:57;;;;;;;6.17;1.37;;;17.30;99.90;;;;;;5026831;28;20606;-76
2021/07/07 00:25:43;;;;;;;10.20;1.83;;;17.20;99.90;;;;;;5023711;28;21055;-76
2021/07/07 00:28:29;;;;;;;9.20;2.10;;;17.10;99.90;;;;;;5025613;28;20422;-76
2021/07/07 00:31:15;;;;;;;6.83;1.60;;;17.10;99.90;;;;;;5027599;28;20459;-76
2021/07/07 00:34:01;;;;;;;8.23;1.70;;;17.20;99.90;;;;;;5024057;28;20447;-77
2021/07/07 00:36:46;;;;;;;3.17;1.43;;;17.10;99.90;;;;;;5024082;28;20792;-76
2021/07/07 00:39:33;;;;;;;12.13;1.60;;;17.00;99.90;;;;;;5030908;28;20491;-76
2021/07/07 00:42:18;;;;;;;5.13;1.70;;;17.00;99.90;;;;;;5026396;28;20481;-77
2021/07/07 00:45:05;;;;;;;8.70;1.80;;;17.00;99.90;;;;;;5026890;28;20869;-76
2021/07/07 00:47:51;;;;;;;5.23;1.53;;;17.10;99.90;;;;;;5017436;28;20516;-76
2021/07/07 00:50:36;;;;;;;14.50;1.73;;;17.10;99.90;;;;;;5025004;28;20975;-76
2021/07/07 00:53:22;;;;;;;2.73;1.40;;;17.10;99.90;;;;;;5028220;28;20953;-76
2021/07/07 00:56:10;;;;;;;4.00;1.60;;;17.10;99.90;;;;;;5029641;28;20492;-76
2021/07/07 00:58:56;;;;;;;3.50;1.60;;;17.10;99.90;;;;;;5033025;28;20468;-76
2021/07/07 01:01:42;;;;;;;7.10;1.87;;;17.10;99.90;;;;;;5028490;28;20429;-76
2021/07/07 01:04:28;;;;;;;3.07;1.50;;;17.10;99.90;;;;;;5033293;28;20445;-76
2021/07/07 01:07:14;;;;;;;5.73;2.07;;;17.20;99.90;;;;;;5033813;28;20429;-77
2021/07/07 01:10:00;;;;;;;9.70;1.73;;;17.00;99.90;;;;;;5037125;28;20512;-77
2021/07/07 01:12:47;;;;;;;10.53;2.20;;;16.90;99.90;;;;;;5033136;28;20585;-76
2021/07/07 01:15:36;;;;;;;4.00;1.50;;;16.90;99.90;;;;;;5032253;28;20442;-76
2021/07/07 01:18:22;;;;;;;14.70;2.03;;;17.00;99.90;;;;;;5032887;28;20430;-76
2021/07/07 01:21:07;;;;;;;4.80;1.63;;;16.90;99.90;;;;;;5031251;28;20787;-76
2021/07/07 01:23:55;;;;;;;12.00;1.77;;;17.00;99.90;;;;;;5032565;28;20450;-77
2021/07/07 01:26:40;;;;;;;11.00;1.73;;;17.00;99.90;;;;;;5025973;28;21086;-76
2021/07/07 01:29:26;;;;;;;6.00;2.17;;;17.00;99.90;;;;;;5031646;28;20516;-76
2021/07/07 01:32:13;;;;;;;10.60;1.77;;;17.00;99.90;;;;;;5029703;28;21060;-76
2021/07/07 01:34:58;;;;;;;2.90;1.83;;;16.90;99.90;;;;;;5033231;28;20458;-77
2021/07/07 01:37:44;;;;;;;2.50;1.80;;;17.00;99.90;;;;;;5026184;28;20523;-77
2021/07/07 01:40:31;;;;;;;4.83;2.00;;;17.00;99.90;;;;;;5029213;28;20478;-77
2021/07/07 01:43:17;;;;;;;5.50;1.77;;;17.00;99.90;;;;;;5031341;28;20396;-77
2021/07/07 01:46:03;;;;;;;2.10;1.37;;;17.00;99.90;;;;;;5022395;28;20496;-77
2021/07/07 01:48:48;;;;;;;2.73;1.77;;;17.00;99.90;;;;;;5026273;28;20446;-77
2021/07/07 01:51:35;;;;;;;6.07;2.10;;;17.00;99.90;;;;;;5029912;28;20430;-76
2021/07/07 01:54:20;;;;;;;3.80;1.83;;;16.80;99.90;;;;;;5030141;28;20443;-77
2021/07/07 01:57:08;;;;;;;2.87;1.77;;;16.80;99.90;;;;;;5031210;28;20452;-76
2021/07/07 01:59:53;;;;;;;4.13;1.67;;;16.80;99.90;;;;;;5029279;28;20479;-75
2021/07/07 02:02:39;;;;;;;11.73;2.10;;;16.90;99.90;;;;;;5024157;28;20818;-75
2021/07/07 02:05:28;;;;;;;5.40;1.47;;;16.90;99.90;;;;;;5029253;28;20941;-75
2021/07/07 02:08:13;;;;;;;8.17;1.93;;;16.90;99.90;;;;;;5029385;28;20428;-75
2021/07/07 02:10:59;;;;;;;8.77;1.90;;;16.90;99.90;;;;;;5036468;28;20446;-75
2021/07/07 02:13:47;;;;;;;20.93;2.50;;;16.90;99.90;;;;;;5023763;28;21088;-75
2021/07/07 02:16:32;;;;;;;2.40;1.70;;;16.90;99.90;;;;;;5026128;28;20416;-75
2021/07/07 02:19:18;;;;;;;3.10;1.73;;;16.70;99.90;;;;;;5028936;28;20491;-75
2021/07/07 02:22:04;;;;;;;5.30;1.90;;;16.80;99.90;;;;;;5032549;28;20992;-75
2021/07/07 02:24:50;;;;;;;3.50;1.67;;;16.80;99.90;;;;;;5020724;28;20567;-75
2021/07/07 02:27:35;;;;;;;9.10;2.17;;;16.70;99.90;;;;;;5030688;28;20421;-75
2021/07/07 02:30:26;;;;;;;3.30;1.80;;;16.80;99.90;;;;;;5026513;28;20516;-75
2021/07/07 02:33:12;;;;;;;4.80;1.87;;;16.80;99.90;;;;;;5021277;28;20493;-75
2021/07/07 02:35:58;;;;;;;4.10;1.87;;;16.80;99.90;;;;;;5026700;28;20509;-75
2021/07/07 02:38:44;;;;;;;5.33;2.10;;;16.80;99.90;;;;;;5029643;28;20451;-75
2021/07/07 02:41:30;;;;;;;5.03;1.63;;;16.70;99.90;;;;;;5030151;28;20809;-75
2021/07/07 02:44:15;;;;;;;4.60;1.70;;;16.70;99.90;;;;;;5025658;28;20434;-75
2021/07/07 02:47:02;;;;;;;3.17;1.80;;;16.80;99.90;;;;;;5031914;28;20482;-75
2021/07/07 02:49:48;;;;;;;12.47;2.80;;;16.80;99.90;;;;;;5028878;28;20491;-75
2021/07/07 02:52:34;;;;;;;2.87;2.30;;;16.70;99.90;;;;;;5032696;28;20492;-75
2021/07/07 02:55:21;;;;;;;8.53;2.40;;;16.80;99.90;;;;;;5027448;28;20458;-76
2021/07/07 02:58:07;;;;;;;3.50;1.97;;;16.80;99.90;;;;;;5020826;28;20421;-75
2021/07/07 03:00:52;;;;;;;5.10;1.83;;;16.80;99.90;;;;;;5029189;28;20445;-75
2021/07/07 03:03:40;;;;;;;7.03;1.87;;;16.80;99.90;;;;;;5031789;28;20532;-75
2021/07/07 03:06:26;;;;;;;3.23;1.67;;;16.90;99.90;;;;;;5017743;28;20455;-75
2021/07/07 03:09:11;;;;;;;2.97;1.90;;;16.70;99.90;;;;;;5031858;28;21010;-75
2021/07/07 03:11:57;;;;;;;12.67;2.37;;;16.60;99.90;;;;;;5030186;28;20425;-75
2021/07/07 03:14:42;;;;;;;3.43;2.03;;;16.70;99.90;;;;;;5030682;28;20462;-75
2021/07/07 03:17:28;;;;;;;4.10;2.30;;;16.70;99.90;;;;;;5031440;28;20429;-75
2021/07/07 03:20:16;;;;;;;6.90;2.10;;;16.70;99.90;;;;;;5020683;28;20486;-75
2021/07/07 03:23:03;;;;;;;2.90;2.10;;;16.80;99.90;;;;;;5032213;28;20431;-75
2021/07/07 03:25:49;;;;;;;3.63;2.40;;;16.60;99.90;;;;;;5021454;28;20441;-75
2021/07/07 03:28:35;;;;;;;3.40;2.07;;;16.50;99.90;;;;;;5025525;28;20433;-75
2021/07/07 03:31:21;;;;;;;4.70;2.00;;;16.60;99.90;;;;;;5026345;28;20429;-75
2021/07/07 03:34:07;;;;;;;3.10;2.03;;;16.60;99.90;;;;;;5019778;28;20967;-75
2021/07/07 03:36:53;;;;;;;5.30;2.57;;;16.60;99.90;;;;;;5024655;28;20437;-75
2021/07/07 03:39:39;;;;;;;3.07;1.70;;;16.60;99.90;;;;;;5021110;28;20479;-75
2021/07/07 03:42:25;;;;;;;4.23;2.23;;;16.60;99.90;;;;;;5027011;28;20450;-75
2021/07/07 03:45:12;;;;;;;7.83;2.10;;;16.70;99.90;;;;;;5031420;28;20420;-75
2021/07/07 03:47:58;;;;;;;3.20;2.37;;;16.80;99.90;;;;;;5023420;28;20455;-75
2021/07/07 03:50:44;;;;;;;7.17;2.50;;;16.70;99.90;;;;;;5022070;28;20482;-75
2021/07/07 03:53:31;;;;;;;6.77;2.20;;;16.60;99.90;;;;;;5027806;28;20446;-75
2021/07/07 03:56:17;;;;;;;7.90;2.40;;;16.40;99.90;;;;;;5027592;28;20465;-75
2021/07/07 03:59:04;;;;;;;3.73;2.13;;;16.50;99.90;;;;;;5025995;28;20498;-75
2021/07/07 04:01:50;;;;;;;5.30;2.03;;;16.50;99.90;;;;;;5020448;28;20451;-75
2021/07/07 04:04:36;;;;;;;2.90;2.03;;;16.60;99.90;;;;;;5022701;28;20447;-75
2021/07/07 04:07:22;;;;;;;5.53;2.57;;;16.60;99.90;;;;;;5027881;28;20447;-75
2021/07/07 04:10:11;;;;;;;7.67;2.30;;;16.60;99.90;;;;;;5020514;28;20532;-75
2021/07/07 04:12:57;;;;;;;6.93;1.80;;;16.60;99.90;;;;;;5027159;28;21056;-75
2021/07/07 04:15:43;;;;;;;3.80;1.70;;;16.60;99.90;;;;;;5028654;28;20462;-75
2021/07/07 04:18:29;;;;;;;2.97;2.07;;;16.60;99.90;;;;;;5020855;28;20579;-75
2021/07/07 04:21:14;;;;;;;4.30;2.03;;;16.50;99.90;;;;;;5022536;28;20837;-75
2021/07/07 04:24:00;;;;;;;4.13;2.10;;;16.50;99.90;;;;;;5024292;28;20413;-75
2021/07/07 04:26:47;;;;;;;6.13;2.10;;;16.60;99.90;;;;;;5030217;28;20450;-75
2021/07/07 04:29:33;;;;;;;4.73;2.10;;;16.70;99.90;;;;;;5028519;28;20489;-75
2021/07/07 04:32:18;;;;;;;4.00;2.43;;;16.50;99.90;;;;;;5026970;28;20418;-74
2021/07/07 04:35:05;;;;;;;7.77;2.00;;;16.60;99.90;;;;;;5019858;28;20451;-74
2021/07/07 04:37:51;;;;;;;6.80;2.10;;;16.70;99.90;;;;;;5026603;28;20450;-75
2021/07/07 04:40:37;;;;;;;2.53;1.90;;;16.60;99.90;;;;;;5034669;28;20947;-75
2021/07/07 04:43:24;;;;;;;4.63;2.03;;;16.70;99.90;;;;;;5030222;28;20824;-75
2021/07/07 04:46:10;;;;;;;6.67;1.93;;;16.70;99.90;;;;;;5029640;28;20513;-75
2021/07/07 04:48:55;;;;;;;6.90;2.17;;;16.70;99.90;;;;;;5028615;28;20450;-76
2021/07/07 04:51:41;;;;;;;4.60;1.90;;;16.80;99.90;;;;;;5024386;28;20425;-76
2021/07/07 04:54:26;;;;;;;2.17;1.43;;;16.70;99.90;;;;;;5026678;28;20505;-76
2021/07/07 04:57:12;;;;;;;3.10;2.10;;;16.70;99.90;;;;;;5018866;28;20454;-75
2021/07/07 05:00:00;;;;;;;6.57;1.80;;;16.70;99.90;;;;;;5026086;28;21125;-75
2021/07/07 05:02:46;;;;;;;8.03;1.93;;;16.70;99.90;;;;;;5023573;28;20538;-75
2021/07/07 05:05:32;;;;;;;3.13;1.57;;;16.70;99.90;;;;;;5026498;28;20462;-75
2021/07/07 05:08:17;;;;;;;4.27;1.97;;;16.70;99.90;;;;;;5016084;28;20491;-75
2021/07/07 05:11:03;;;;;;;2.07;1.50;;;16.70;99.90;;;;;;5023385;28;20443;-75
2021/07/07 05:13:49;;;;;;;3.53;1.77;;;16.70;99.90;;;;;;5016249;28;20923;-75
2021/07/07 05:16:36;;;;;;;7.10;2.00;;;16.70;99.90;;;;;;5025334;28;20454;-75
2021/07/07 05:19:22;;;;;;;3.53;1.50;;;16.80;99.90;;;;;;5018310;28;21127;-75
2021/07/07 05:22:07;;;;;;;11.73;1.77;;;16.80;99.90;;;;;;5028949;28;20447;-75
2021/07/07 05:24:53;;;;;;;3.63;1.20;;;16.90;99.90;;;;;;5029264;28;20584;-75
2021/07/07 05:27:39;;;;;;;3.10;1.43;;;16.90;99.90;;;;;;5028024;28;20969;-75
2021/07/07 05:30:25;;;;;;;1.77;1.20;;;16.80;99.90;;;;;;5023678;28;21084;-75
2021/07/07 05:33:12;;;;;;;5.40;1.70;;;16.80;99.90;;;;;;5030131;28;20936;-75
2021/07/07 05:35:58;;;;;;;7.93;1.50;;;16.90;99.90;;;;;;5022900;28;21028;-75
2021/07/07 05:38:44;;;;;;;3.80;1.50;;;16.90;99.90;;;;;;5026566;28;20585;-75
2021/07/07 05:41:29;;;;;;;3.13;1.67;;;16.90;99.90;;;;;;5025403;28;20449;-75
2021/07/07 05:44:15;;;;;;;4.27;1.50;;;16.80;99.90;;;;;;5029351;28;20483;-75
2021/07/07 05:47:01;;;;;;;6.53;1.57;;;16.90;99.90;;;;;;5032670;28;20451;-75
2021/07/07 05:49:48;;;;;;;3.80;1.80;;;16.90;99.90;;;;;;5028219;28;20582;-75
2021/07/07 05:52:34;;;;;;;4.03;2.63;;;17.00;99.90;;;;;;5027097;28;20791;-75
2021/07/07 05:55:20;;;;;;;5.13;1.90;;;17.10;99.90;;;;;;5020265;28;20582;-75
2021/07/07 05:58:06;;;;;;;5.00;2.93;;;17.20;99.90;;;;;;5020919;28;20450;-75
2021/07/07 06:00:51;;;;;;;4.97;2.00;;;17.20;99.90;;;;;;5024373;28;20507;-75
2021/07/07 06:03:37;;;;;;;2.50;1.40;;;17.30;99.90;;;;;;5033615;28;20412;-75
2021/07/07 06:06:24;;;;;;;6.10;1.93;;;17.30;99.90;;;;;;5030854;28;20527;-75
2021/07/07 06:09:10;;;;;;;3.60;1.97;;;17.30;99.90;;;;;;5037755;28;20512;-75
2021/07/07 06:11:57;;;;;;;6.33;1.80;;;17.40;99.90;;;;;;5028356;28;20921;-75
2021/07/07 06:14:43;;;;;;;5.90;1.77;;;17.40;99.90;;;;;;5031087;28;20459;-75
2021/07/07 06:17:29;;;;;;;2.67;1.50;;;17.40;99.90;;;;;;5032666;28;20956;-75
2021/07/07 06:20:16;;;;;;;5.97;1.90;;;17.50;99.90;;;;;;5027053;28;20490;-75
2021/07/07 06:23:04;;;;;;;4.63;1.20;;;17.60;99.90;;;;;;5027241;28;20439;-75
2021/07/07 06:25:50;;;;;;;6.63;1.80;;;17.70;99.90;;;;;;5025848;28;20445;-75
2021/07/07 06:28:35;;;;;;;2.50;1.30;;;17.70;99.90;;;;;;5024342;28;20450;-75
2021/07/07 06:31:21;;;;;;;5.97;1.80;;;17.70;99.90;;;;;;5022380;28;20455;-75
2021/07/07 06:34:06;;;;;;;2.73;1.57;;;17.80;99.90;;;;;;5028781;28;20459;-75
2021/07/07 06:36:52;;;;;;;6.73;2.47;;;17.70;99.90;;;;;;5025478;28;20802;-75
2021/07/07 06:39:39;;;;;;;3.77;1.33;;;17.70;99.90;;;;;;5024358;28;20926;-75
2021/07/07 06:42:25;;;;;;;2.70;1.50;;;17.70;99.90;;;;;;5028833;28;20939;-75
2021/07/07 06:45:11;;;;;;;5.90;1.90;;;17.80;99.90;;;;;;5026849;28;20447;-75
2021/07/07 06:47:57;;;;;;;5.80;1.60;;;18.00;99.90;;;;;;5027518;28;20498;-75
2021/07/07 06:50:43;;;;;;;6.50;1.50;;;18.10;99.90;;;;;;5027646;28;20530;-75
2021/07/07 06:53:29;;;;;;;11.90;2.63;;;18.10;99.90;;;;;;5026692;28;20446;-75
2021/07/07 06:56:16;;;;;;;4.33;1.70;;;17.90;99.90;;;;;;5027515;28;20506;-75
2021/07/07 06:59:01;;;;;;;3.97;1.33;;;17.90;99.90;;;;;;5030717;28;20465;-75
2021/07/07 07:01:47;;;;;;;4.93;1.90;;;18.00;99.90;;;;;;5023704;28;20988;-75
2021/07/07 07:04:33;;;;;;;3.20;1.50;;;18.20;99.90;;;;;;5021583;28;20526;-76
2021/07/07 07:07:18;;;;;;;3.10;1.50;;;18.10;99.90;;;;;;5031927;28;20463;-76
2021/07/07 07:10:05;;;;;;;3.63;2.10;;;18.00;99.90;;;;;;5028319;28;20521;-76
2021/07/07 07:12:52;;;;;;;3.20;1.60;;;18.00;99.90;;;;;;5032395;28;20436;-76
2021/07/07 07:15:39;;;;;;;8.73;1.90;;;18.00;99.90;;;;;;5025908;28;20796;-76
2021/07/07 07:18:24;;;;;;;4.77;1.73;;;18.00;99.90;;;;;;5030795;28;20414;-75
2021/07/07 07:21:10;;;;;;;6.23;1.90;;;18.10;99.90;;;;;;5025758;28;20483;-75
2021/07/07 07:23:56;;;;;;;4.60;1.13;;;18.20;99.90;;;;;;5028424;28;21023;-76
2021/07/07 07:26:42;;;;;;;3.30;1.73;;;18.10;99.90;;;;;;5026172;28;20968;-75
2021/07/07 07:29:29;;;;;;;4.33;2.00;;;18.20;99.90;;;;;;5025827;28;21100;-75
2021/07/07 07:32:14;;;;;;;2.90;1.70;;;18.30;99.90;;;;;;5031898;28;20406;-75
2021/07/07 07:35:00;;;;;;;3.70;1.80;;;18.40;99.90;;;;;;5030057;28;20447;-75
2021/07/07 07:37:50;;;;;;;5.87;1.60;;;18.40;99.90;;;;;;5024927;28;20422;-75
2021/07/07 07:40:37;;;;;;;3.03;1.47;;;18.40;99.90;;;;;;5029731;28;20469;-75
2021/07/07 07:43:23;;;;;;;5.30;1.83;;;18.50;99.90;;;;;;5030847;28;20491;-75
2021/07/07 07:46:10;;;;;;;3.70;1.60;;;18.60;99.90;;;;;;5030628;28;20505;-75
2021/07/07 07:48:56;;;;;;;4.00;2.00;;;18.60;99.90;;;;;;5015224;28;20841;-75
2021/07/07 07:51:42;;;;;;;2.67;1.53;;;18.60;99.90;;;;;;5022084;28;20969;-75
2021/07/07 07:54:28;;;;;;;3.60;1.53;;;18.60;99.90;;;;;;5029553;28;21007;-75
2021/07/07 07:57:14;;;;;;;5.33;1.90;;;18.70;99.90;;;;;;5031608;28;20797;-75
2021/07/07 08:00:00;;;;;;;4.90;1.40;;;18.70;99.90;;;;;;5045055;23;21069;-73
2021/07/07 08:02:48;;;;;;;4.33;1.50;;;18.80;99.90;;;;;;5035186;28;20443;-73
2021/07/07 08:05:33;;;;;;;7.17;1.90;;;18.90;99.90;;;;;;5036176;28;20466;-73
2021/07/07 08:08:19;;;;;;;7.50;1.63;;;18.80;99.90;;;;;;5035403;28;20421;-73
2021/07/07 08:11:05;;;;;;;4.57;1.90;;;18.70;99.90;;;;;;5037985;28;20494;-73
2021/07/07 08:13:52;;;;;;;4.67;1.30;;;18.80;99.90;;;;;;5043369;28;20515;-73
2021/07/07 08:16:39;;;;;;;3.27;1.50;;;18.90;99.90;;;;;;5046730;28;20518;-73
2021/07/07 08:19:26;;;;;;;8.40;1.67;;;19.00;99.90;;;;;;5033710;28;20907;-73
2021/07/07 08:22:11;;;;;;;7.73;1.50;;;19.20;99.90;;;;;;5033444;28;21083;-72
2021/07/07 08:24:57;;;;;;;4.00;1.90;;;19.30;99.90;;;;;;5032869;28;20405;-73
2021/07/07 08:27:44;;;;;;;5.17;1.53;;;19.40;99.90;;;;;;5032640;28;20477;-73
2021/07/07 08:30:29;;;;;;;4.53;1.53;;;19.50;99.90;;;;;;5032070;28;20455;-72
2021/07/07 08:33:16;;;;;;;3.20;1.23;;;19.50;99.90;;;;;;5033163;28;20806;-73
2021/07/07 08:36:03;;;;;;;5.30;1.60;;;19.60;99.90;;;;;;5032587;28;20432;-72
2021/07/07 08:38:48;;;;;;;4.20;1.57;;;19.70;99.90;;;;;;5032646;28;20410;-72
2021/07/07 08:41:34;;;;;;;6.53;1.60;;;19.70;99.90;;;;;;5039706;28;20471;-73
2021/07/07 08:44:20;;;;;;;5.50;1.80;;;19.80;99.90;;;;;;5022227;28;20509;-74
2021/07/07 08:47:07;;;;;;;5.10;2.07;;;19.80;99.90;;;;;;5036502;28;20412;-73
2021/07/07 08:49:53;;;;;;;6.10;1.57;;;19.50;99.90;;;;;;5041147;28;20530;-73
2021/07/07 08:52:40;;;;;;;2.73;1.00;;;19.30;99.90;;;;;;5053016;28;20436;-73
2021/07/07 08:55:26;;;;;;;4.67;1.30;;;19.20;99.90;;;;;;5052440;28;20417;-73
2021/07/07 08:58:12;;;;;;;5.70;1.60;;;19.20;99.90;;;;;;5052376;28;20533;-73
2021/07/07 09:01:02;;;;;;;3.90;1.53;;;19.30;99.90;;;;;;5052034;28;20513;-73
2021/07/07 09:03:47;;;;;;;4.60;1.70;;;19.40;99.90;;;;;;5051697;28;20927;-73
2021/07/07 09:06:33;;;;;;;4.07;1.13;;;19.50;99.90;;;;;;5051931;28;20430;-73
2021/07/07 09:09:34;;;;;;;3.27;1.37;;;19.60;99.90;;;;;;5051408;28;20558;-73
2021/07/07 09:12:22;;;;;;;5.00;1.37;;;19.50;99.90;;;;;;5040229;28;20823;-73
2021/07/07 09:15:09;;;;;;;4.87;1.37;;;19.60;99.90;;;;;;5032030;28;20427;-73
2021/07/07 09:17:55;;;;;;;3.37;1.20;;;19.90;99.90;;;;;;5034935;28;20431;-72
2021/07/07 09:20:40;;;;;;;3.50;1.30;;;19.90;99.90;;;;;;5036387;28;20812;-73
2021/07/07 09:23:28;;;;;;;5.73;1.97;;;20.00;99.90;;;;;;5036228;28;20443;-73
2021/07/07 09:26:14;;;;;;;4.03;1.57;;;20.20;99.90;;;;;;5036372;28;20449;-73
2021/07/07 09:29:00;;;;;;;5.13;2.07;;;20.20;99.90;;;;;;5036248;28;20507;-73
2021/07/07 09:31:46;;;;;;;5.47;1.33;;;20.30;99.90;;;;;;5036511;28;20427;-73
2021/07/07 09:34:38;;;;;;;4.90;1.50;;;20.30;99.90;;;;;;5036099;28;20422;-73
2021/07/07 09:37:28;;;;;;;2.73;1.10;;;20.40;99.90;;;;;;5036313;28;20435;-73
2021/07/07 09:40:15;;;;;;;4.17;1.20;;;20.40;99.90;;;;;;5043719;28;20449;-73
2021/07/07 09:43:04;;;;;;;4.33;2.07;;;20.60;99.90;;;;;;5050340;28;20477;-72
2021/07/07 09:45:50;;;;;;;6.03;1.50;;;20.50;99.90;;;;;;5055247;28;20431;-72
2021/07/07 09:48:37;;;;;;;3.37;1.87;;;20.60;99.90;;;;;;5055360;28;20430;-73
2021/07/07 09:51:23;;;;;;;3.10;1.40;;;20.80;99.90;;;;;;5054402;28;20443;-73
2021/07/07 09:54:09;;;;;;;6.03;2.00;;;21.00;99.90;;;;;;5054665;28;20914;-73
2021/07/07 09:56:55;;;;;;;11.97;1.80;;;21.10;99.90;;;;;;5054835;28;20451;-73
2021/07/07 09:59:42;;;;;;;6.23;1.93;;;21.10;99.90;;;;;;5054671;28;20541;-73
2021/07/07 10:02:28;;;;;;;5.37;1.67;;;21.30;99.90;;;;;;5054383;28;20519;-72
2021/07/07 10:05:16;;;;;;;3.47;1.60;;;21.50;99.90;;;;;;5054028;28;20405;-73
2021/07/07 10:08:02;;;;;;;7.77;2.20;;;21.50;99.90;;;;;;5054122;28;20416;-73
2021/07/07 10:10:49;;;;;;;5.43;1.37;;;21.60;99.90;;;;;;5041807;28;20455;-73
2021/07/07 10:13:34;;;;;;;4.10;1.60;;;21.60;99.90;;;;;;5034630;28;20435;-73
2021/07/07 10:16:23;;;;;;;6.00;1.33;;;21.80;99.90;;;;;;5030992;28;21024;-72
2021/07/07 10:19:10;;;;;;;4.00;1.93;;;21.80;99.90;;;;;;5031794;28;20452;-74
2021/07/07 10:21:56;;;;;;;5.73;1.70;;;22.00;99.90;;;;;;5040463;28;20452;-74
2021/07/07 10:24:43;;;;;;;4.63;1.70;;;21.90;99.90;;;;;;5036209;28;20508;-74
2021/07/07 10:27:30;;;;;;;5.47;1.53;;;22.00;99.90;;;;;;5052071;28;20440;-74
2021/07/07 10:30:20;;;;;;;5.67;1.67;;;22.10;99.90;;;;;;5037502;28;20431;-74
2021/07/07 10:33:11;;;;;;;5.63;1.33;;;22.10;99.90;;;;;;5033361;28;20936;-74
2021/07/07 10:36:15;;;;;;;4.23;1.70;;;22.10;99.90;;;;;;5033021;28;20414;-74
2021/07/07 10:39:04;;;;;;;8.40;1.50;;;22.30;99.90;;;;;;5032020;28;20426;-74
2021/07/07 10:41:59;;;;;;;8.10;2.27;;;22.60;99.90;;;;;;5026281;28;20584;-73
2021/07/07 10:44:50;;;;;;;6.33;2.07;;;22.70;99.90;;;;;;5039437;28;20467;-74
2021/07/07 10:47:38;;;;;;;11.67;2.13;;;22.80;99.90;;;;;;5020912;28;20536;-74
2021/07/07 10:50:34;;;;;;;7.10;1.53;;;23.00;99.90;;;;;;5037812;28;20599;-73
2021/07/07 10:53:27;;;;;;;5.30;1.63;;;23.10;99.20;;;;;;5041330;28;20445;-74
2021/07/07 10:56:12;;;;;;;7.23;1.80;;;23.20;92.80;;;;;;5026589;28;20953;-73
2021/07/07 10:58:58;;;;;;;8.50;1.67;;;23.00;86.20;;;;;;5013581;28;20559;-73
2021/07/07 11:01:44;;;;;;;12.27;1.50;;;22.70;84.20;;;;;;5029769;28;20460;-74
2021/07/07 11:04:34;;;;;;;7.27;1.93;;;22.70;89.80;;;;;;5033644;28;20518;-73
2021/07/07 11:07:34;;;;;;;5.90;1.93;;;22.80;91.10;;;;;;5020093;28;20811;-74
2021/07/07 11:10:23;;;;;;;5.90;1.40;;;22.80;82.30;;;;;;5014747;28;20988;-72
2021/07/07 11:13:16;;;;;;;3.83;1.50;;;23.00;84.40;;;;;;5035772;28;20549;-73
2021/07/07 11:16:09;;;;;;;14.10;1.70;;;23.10;79.90;;;;;;5028873;28;20453;-73
2021/07/07 11:18:55;;;;;;;4.63;1.93;;;23.30;77.00;;;;;;5033691;28;20465;-73
2021/07/07 11:21:41;;;;;;;9.67;1.63;;;23.40;68.30;;;;;;5037260;28;20435;-73
2021/07/07 11:24:28;;;;;;;16.63;3.00;;;23.50;73.80;;;;;;5028499;28;20954;-73
2021/07/07 11:27:13;;;;;;;4.80;1.80;;;23.50;71.80;;;;;;5018822;28;20444;-74
2021/07/07 11:30:00;;;;;;;3.73;1.57;;;23.50;73.70;;;;;;5030313;28;20455;-73
2021/07/07 11:32:47;;;;;;;9.20;1.60;;;23.80;75.40;;;;;;5031618;28;20941;-73
2021/07/07 11:35:35;;;;;;;4.40;1.60;;;24.00;72.10;;;;;;5031816;28;20427;-73
2021/07/07 11:38:22;;;;;;;6.90;1.90;;;24.00;70.50;;;;;;5031296;28;20443;-73
2021/07/07 11:41:15;;;;;;;8.23;2.10;;;23.90;70.80;;;;;;5037752;28;20539;-73
2021/07/07 11:44:01;;;;;;;5.77;2.23;;;23.90;74.80;;;;;;5035448;28;20470;-74
2021/07/07 11:46:58;;;;;;;7.30;1.97;;;24.10;76.70;;;;;;5036710;28;20408;-73
2021/07/07 11:50:02;;;;;;;5.17;1.43;;;24.30;76.80;;;;;;5034357;28;20443;-74
2021/07/07 11:52:55;;;;;;;8.20;2.03;;;24.20;63.50;;;;;;5048887;28;20444;-73
2021/07/07 11:55:47;;;;;;;5.13;2.23;;;24.10;75.20;;;;;;5022041;28;20436;-73
2021/07/07 11:58:37;;;;;;;8.93;1.90;;;24.10;74.30;;;;;;5035938;28;20486;-73
2021/07/07 12:01:24;;;;;;;8.10;1.73;;;24.30;74.80;;;;;;5043056;28;20452;-73
2021/07/07 12:04:13;;;;;;;3.70;1.37;;;24.40;68.20;;;;;;5022019;28;20840;-73
2021/07/07 12:06:58;;;;;;;4.00;1.40;;;24.30;66.00;;;;;;5028705;28;20428;-73
2021/07/07 12:09:44;;;;;;;4.30;1.37;;;24.40;64.60;;;;;;5032935;28;20479;-74
2021/07/07 12:12:30;;;;;;;6.23;1.70;;;24.50;60.20;;;;;;5021783;28;20419;-73
2021/07/07 12:15:24;;;;;;;4.70;1.50;;;24.50;62.30;;;;;;5023056;28;20445;-74
2021/07/07 12:18:23;;;;;;;8.10;1.53;;;24.60;58.20;;;;;;5032045;28;20449;-73
2021/07/07 12:21:09;;;;;;;5.93;1.70;;;24.90;59.50;;;;;;5044817;28;20774;-74
2021/07/07 12:23:57;;;;;;;5.07;1.47;;;24.90;57.60;;;;;;5044945;28;20876;-74
2021/07/07 12:26:44;;;;;;;4.83;1.90;;;25.00;56.80;;;;;;5031110;28;20422;-73
2021/07/07 12:29:31;;;;;;;3.10;1.70;;;24.90;52.50;;;;;;5034867;28;20449;-74
2021/07/07 12:32:25;;;;;;;3.17;1.20;;;24.80;51.90;;;;;;5030574;28;20424;-74
2021/07/07 12:35:12;;;;;;;6.83;1.63;;;25.00;52.80;;;;;;5040427;28;20477;-74
2021/07/07 12:37:59;;;;;;;6.80;2.03;;;25.20;51.60;;;;;;5023454;28;20610;-74
2021/07/07 12:40:53;;;;;;;4.23;1.90;;;25.40;54.90;;;;;;5041003;28;20604;-73
2021/07/07 12:43:55;;;;;;;10.73;2.30;;;25.60;49.00;;;;;;5042964;28;21112;-73
2021/07/07 12:46:51;;;;;;;10.43;1.67;;;25.70;51.00;;;;;;5033862;28;20418;-74
2021/07/07 12:49:44;;;;;;;6.33;2.47;;;25.60;47.40;;;;;;5019931;28;20473;-74
2021/07/07 12:52:31;;;;;;;3.67;1.23;;;25.50;50.70;;;;;;5037490;28;20436;-73
2021/07/07 12:55:20;;;;;;;2.90;1.43;;;25.70;48.50;;;;;;5047367;28;20457;-74
2021/07/07 12:58:14;;;;;;;4.83;1.40;;;25.80;51.50;;;;;;5033845;28;20426;-74
2021/07/07 13:01:00;;;;;;;3.77;1.43;;;25.90;48.30;;;;;;5033533;28;20460;-74
2021/07/07 13:03:45;;;;;;;5.40;1.90;;;26.10;50.40;;;;;;5043945;28;20578;-74
2021/07/07 13:06:33;;;;;;;6.77;1.57;;;26.20;47.00;;;;;;5041178;28;20443;-73
2021/07/07 13:09:19;;;;;;;6.37;1.83;;;26.30;47.90;;;;;;5039306;28;20537;-74
2021/07/07 13:12:07;;;;;;;4.60;1.70;;;26.30;45.20;;;;;;5027362;28;20954;-74
2021/07/07 13:14:57;;;;;;;4.67;1.73;;;26.00;47.90;;;;;;5036411;28;20448;-74
2021/07/07 13:17:58;;;;;;;5.27;2.07;;;26.00;47.40;;;;;;5042603;28;20429;-74
2021/07/07 13:20:57;;;;;;;8.70;1.40;;;26.10;47.90;;;;;;5042291;28;21265;-74
2021/07/07 13:23:50;;;;;;;3.83;1.37;;;26.30;49.40;;;;;;5027079;28;20603;-74
2021/07/07 13:26:41;;;;;;;9.03;1.50;;;26.50;46.10;;;;;;5032354;28;20488;-73
2021/07/07 13:29:28;;;;;;;5.50;1.60;;;26.70;46.30;;;;;;5044088;28;20433;-74
2021/07/07 13:32:19;;;;;;;5.63;1.50;;;26.80;43.40;;;;;;5035375;28;20807;-73
2021/07/07 13:35:06;;;;;;;5.27;1.53;;;26.80;48.00;;;;;;5037747;28;20452;-73
2021/07/07 13:37:54;;;;;;;6.70;1.97;;;27.00;46.60;;;;;;5041147;28;20445;-74
2021/07/07 13:40:41;;;;;;;5.50;1.30;;;27.00;41.40;;;;;;5031760;28;20445;-74
2021/07/07 13:43:27;;;;;;;6.40;2.03;;;26.90;45.30;;;;;;5042002;28;21028;-74
2021/07/07 13:46:12;;;;;;;5.03;1.70;;;26.70;46.30;;;;;;5029982;28;20465;-73
2021/07/07 13:48:58;;;;;;;4.20;1.83;;;26.60;48.70;;;;;;5038651;28;20612;-74
2021/07/07 13:51:44;;;;;;;15.67;1.80;;;26.80;50.00;;;;;;5042308;28;20811;-73
2021/07/07 13:54:29;;;;;;;4.87;1.73;;;26.80;47.90;;;;;;5038294;28;20559;-73
2021/07/07 13:57:17;;;;;;;5.50;1.80;;;26.90;49.50;;;;;;5037420;28;20465;-73
2021/07/07 14:00:05;;;;;;;3.23;1.40;;;26.90;48.10;;;;;;5063589;22;20558;-75
2021/07/07 14:02:50;;;;;;;5.60;1.57;;;27.10;49.00;;;;;;5023064;28;20598;-76
2021/07/07 14:05:36;;;;;;;7.23;1.33;;;27.10;46.70;;;;;;5024578;28;20925;-76
2021/07/07 14:08:22;;;;;;;4.30;1.60;;;27.20;48.60;;;;;;5030124;28;20458;-76
2021/07/07 14:11:07;;;;;;;5.17;1.43;;;27.20;47.10;;;;;;5033230;28;20965;-75
2021/07/07 14:13:55;;;;;;;4.47;1.80;;;27.30;48.70;;;;;;5033302;28;20605;-75
2021/07/07 14:16:40;;;;;;;10.00;2.00;;;27.10;46.60;;;;;;5015241;28;20565;-76
2021/07/07 14:19:26;;;;;;;5.27;2.00;;;27.30;50.60;;;;;;5033779;28;21013;-75
2021/07/07 14:22:12;;;;;;;6.00;1.70;;;27.00;45.40;;;;;;5033420;28;20527;-75
2021/07/07 14:24:58;;;;;;;5.30;1.50;;;26.80;46.40;;;;;;5027033;28;20894;-75
2021/07/07 14:27:44;;;;;;;4.20;1.53;;;26.90;48.10;;;;;;5025162;28;20459;-76